Time;durP1;ratioP1;P1;durP2;ratioP2;P2;SDS_P1;SDS_P2;PMS_P1;PMS_P2;Temp;Humidity;BMP_temperature;BMP_pressure;BME280_temperature;BME280_humidity;BME280_pressure;Samples;Min_cycle;Max_cycle;Signal;HPM_P1;HPM_P2
2022/07/19 00:01:35;;;;;;;1.02;1.02;;;17.20;99.90;;;;;;5094821;28;20388;-76
2022/07/19 00:04:01;;;;;;;1.38;1.23;;;17.10;99.90;;;;;;5094838;28;20047;-74
2022/07/19 00:06:26;;;;;;;0.55;0.55;;;17.00;99.90;;;;;;5076718;28;20038;-73
2022/07/19 00:08:52;;;;;;;0.73;0.73;;;17.00;99.90;;;;;;5094933;28;20024;-80
2022/07/19 00:11:18;;;;;;;2.17;0.95;;;17.00;99.90;;;;;;5095063;28;20024;-74
2022/07/19 00:13:43;;;;;;;1.95;1.15;;;17.00;99.90;;;;;;5094836;28;20036;-78
2022/07/19 00:16:09;;;;;;;0.95;0.95;;;16.90;99.90;;;;;;5094722;28;20024;-73
2022/07/19 00:18:35;;;;;;;0.90;0.68;;;16.90;99.90;;;;;;5094856;28;20024;-74
2022/07/19 00:21:01;;;;;;;1.45;1.13;;;16.90;99.90;;;;;;5094425;28;20073;-76
2022/07/19 00:23:26;;;;;;;14.48;1.30;;;16.90;99.90;;;;;;5076466;28;20043;-74
2022/07/19 00:25:52;;;;;;;2.97;0.80;;;16.90;99.90;;;;;;5094475;28;20021;-73
2022/07/19 00:28:18;;;;;;;0.60;0.60;;;16.80;99.90;;;;;;5094849;28;20109;-77
2022/07/19 00:30:44;;;;;;;2.38;0.95;;;16.70;99.90;;;;;;5094466;28;20027;-74
2022/07/19 00:33:10;;;;;;;0.50;0.50;;;16.70;99.90;;;;;;5094447;28;20084;-74
2022/07/19 00:35:37;;;;;;;2.78;0.93;;;16.70;99.90;;;;;;5094461;28;20103;-76
2022/07/19 00:38:08;;;;;;;0.80;0.80;;;16.60;99.90;;;;;;5094240;28;20062;-78
2022/07/19 00:40:35;;;;;;;1.05;0.95;;;16.60;99.90;;;;;;5093966;28;20024;-75
2022/07/19 00:43:00;;;;;;;1.90;0.90;;;16.50;99.90;;;;;;5094156;28;20476;-78
2022/07/19 00:45:26;;;;;;;4.03;0.90;;;16.50;99.90;;;;;;5094120;28;20024;-75
2022/07/19 00:47:52;;;;;;;0.70;0.70;;;16.50;99.90;;;;;;5076058;28;20024;-78
2022/07/19 00:50:19;;;;;;;0.90;0.90;;;16.50;99.90;;;;;;5094212;28;20020;-75
2022/07/19 00:52:49;;;;;;;0.90;0.90;;;16.40;99.90;;;;;;5094017;28;20412;-75
2022/07/19 00:55:17;;;;;;;0.85;0.75;;;16.40;99.90;;;;;;5094188;28;20044;-77
2022/07/19 00:57:44;;;;;;;3.97;0.95;;;16.30;99.90;;;;;;5093874;28;20028;-73
2022/07/19 01:00:11;;;;;;;0.98;0.88;;;16.30;99.90;;;;;;5093887;28;20020;-75
2022/07/19 01:02:37;;;;;;;1.30;0.65;;;16.30;99.90;;;;;;5094162;28;20035;-76
2022/07/19 01:05:04;;;;;;;1.05;0.63;;;16.20;99.90;;;;;;5096994;28;20024;-77
2022/07/19 01:07:29;;;;;;;3.50;0.95;;;16.20;99.90;;;;;;5094311;28;20031;-75
2022/07/19 01:09:55;;;;;;;1.00;0.82;;;16.10;99.90;;;;;;5075634;28;20388;-76
2022/07/19 01:12:22;;;;;;;0.95;0.93;;;16.00;99.90;;;;;;5075633;28;20386;-76
2022/07/19 01:14:49;;;;;;;2.20;1.48;;;16.00;99.90;;;;;;5093708;28;20020;-77
2022/07/19 01:17:14;;;;;;;0.57;0.57;;;16.00;99.90;;;;;;5075399;28;20110;-78
2022/07/19 01:19:43;;;;;;;4.93;1.00;;;15.90;99.90;;;;;;5075407;28;20420;-78
2022/07/19 01:22:08;;;;;;;1.05;0.93;;;15.70;99.90;;;;;;5075396;28;20036;-78
2022/07/19 01:24:34;;;;;;;6.85;1.50;;;15.70;99.90;;;;;;5075384;28;20024;-78
2022/07/19 01:26:59;;;;;;;2.28;1.05;;;15.70;99.90;;;;;;5093653;28;20085;-79
2022/07/19 01:29:26;;;;;;;0.88;0.80;;;15.60;99.90;;;;;;5093737;28;20051;-77
2022/07/19 01:31:51;;;;;;;0.80;0.80;;;15.60;99.90;;;;;;5093492;28;20047;-76
2022/07/19 01:34:17;;;;;;;0.90;0.90;;;15.60;99.90;;;;;;5093343;28;20062;-77
2022/07/19 01:36:43;;;;;;;0.65;0.65;;;15.60;99.90;;;;;;5093840;28;20051;-73
2022/07/19 01:39:08;;;;;;;0.93;0.93;;;15.60;99.90;;;;;;5093489;28;20069;-75
2022/07/19 01:41:34;;;;;;;0.30;0.30;;;15.60;99.90;;;;;;5093323;28;20042;-74
2022/07/19 01:44:00;;;;;;;1.10;1.00;;;15.60;99.90;;;;;;5093397;28;20028;-73
2022/07/19 01:46:25;;;;;;;0.68;0.68;;;15.60;99.90;;;;;;5093370;28;20027;-76
2022/07/19 01:48:51;;;;;;;1.42;1.38;;;15.50;99.90;;;;;;5093274;28;20028;-74
2022/07/19 01:51:17;;;;;;;2.20;0.88;;;15.50;99.90;;;;;;5075635;28;20025;-73
2022/07/19 01:53:42;;;;;;;1.13;1.13;;;15.40;99.90;;;;;;5093945;28;20044;-76
2022/07/19 01:56:08;;;;;;;0.65;0.65;;;15.30;99.90;;;;;;5075346;28;20078;-74
2022/07/19 01:58:34;;;;;;;1.40;0.85;;;15.20;99.90;;;;;;5093053;28;20451;-77
2022/07/19 02:01:00;;;;;;;1.70;0.73;;;15.20;99.90;;;;;;5074962;28;20024;-76
2022/07/19 02:03:28;;;;;;;0.70;0.70;;;15.20;99.90;;;;;;5093244;28;20032;-77
2022/07/19 02:05:55;;;;;;;1.27;0.70;;;15.20;99.90;;;;;;5093254;28;20028;-77
2022/07/19 02:08:21;;;;;;;0.55;0.55;;;15.20;99.90;;;;;;5074977;28;20043;-75
2022/07/19 02:10:46;;;;;;;0.57;0.57;;;15.20;99.90;;;;;;5093426;28;20399;-74
2022/07/19 02:13:12;;;;;;;0.55;0.50;;;15.20;99.90;;;;;;5092721;28;20398;-78
2022/07/19 02:15:38;;;;;;;1.00;1.00;;;15.20;99.90;;;;;;5092884;28;20095;-78
2022/07/19 02:18:03;;;;;;;0.63;0.63;;;15.10;99.90;;;;;;5097224;28;20024;-73
2022/07/19 02:20:29;;;;;;;1.30;0.70;;;15.00;99.90;;;;;;5097159;28;20024;-74
2022/07/19 02:22:56;;;;;;;1.45;1.17;;;14.90;99.90;;;;;;5097680;28;20396;-73
2022/07/19 02:25:22;;;;;;;1.10;0.90;;;14.80;99.90;;;;;;5099574;28;20020;-77
2022/07/19 02:27:47;;;;;;;1.00;0.63;;;14.80;99.90;;;;;;5083401;28;20036;-78
2022/07/19 02:30:14;;;;;;;1.50;0.88;;;14.80;99.90;;;;;;5102186;28;20384;-76
2022/07/19 02:32:40;;;;;;;2.58;1.20;;;14.80;99.90;;;;;;5099505;28;20472;-77
2022/07/19 02:35:07;;;;;;;0.73;0.73;;;14.70;99.90;;;;;;5078926;28;20498;-77
2022/07/19 02:37:33;;;;;;;1.27;0.73;;;14.80;99.90;;;;;;5098413;28;20024;-74
2022/07/19 02:39:59;;;;;;;0.60;0.60;;;14.80;99.90;;;;;;5098096;28;20039;-72
2022/07/19 02:42:24;;;;;;;2.47;0.98;;;14.80;99.90;;;;;;5098003;28;20032;-73
2022/07/19 02:44:50;;;;;;;0.52;0.52;;;14.90;99.90;;;;;;5098101;28;20357;-78
2022/07/19 02:47:16;;;;;;;0.43;0.43;;;14.90;99.90;;;;;;5097193;28;20418;-75
2022/07/19 02:49:41;;;;;;;1.27;0.57;;;14.90;99.90;;;;;;5097273;28;20024;-75
2022/07/19 02:52:07;;;;;;;0.75;0.65;;;14.80;99.90;;;;;;5097010;28;20085;-77
2022/07/19 02:54:32;;;;;;;0.63;0.63;;;14.90;99.90;;;;;;5079081;28;20093;-77
2022/07/19 02:56:58;;;;;;;0.75;0.73;;;14.90;99.90;;;;;;5097424;28;20038;-77
2022/07/19 02:59:24;;;;;;;5.95;1.00;;;14.80;99.90;;;;;;5096881;28;20035;-76
2022/07/19 03:01:49;;;;;;;0.73;0.73;;;14.80;99.90;;;;;;5096185;28;20090;-75
2022/07/19 03:04:15;;;;;;;0.90;0.65;;;14.70;99.90;;;;;;5096029;28;20468;-76
2022/07/19 03:06:41;;;;;;;3.30;1.13;;;14.60;99.90;;;;;;5078441;28;20529;-75
2022/07/19 03:09:06;;;;;;;1.40;1.20;;;14.60;99.90;;;;;;5100219;28;20024;-74
2022/07/19 03:11:32;;;;;;;0.50;0.50;;;14.60;99.90;;;;;;5100032;28;20456;-74
2022/07/19 03:13:58;;;;;;;0.60;0.60;;;14.60;99.90;;;;;;5100987;28;20476;-75
2022/07/19 03:16:23;;;;;;;3.15;0.73;;;14.60;99.90;;;;;;5082671;28;20059;-73
2022/07/19 03:18:49;;;;;;;0.93;0.77;;;14.60;99.90;;;;;;5082303;28;20075;-74
2022/07/19 03:21:15;;;;;;;0.95;0.65;;;14.50;99.90;;;;;;5078501;28;20089;-75
2022/07/19 03:23:40;;;;;;;2.53;0.80;;;14.50;99.90;;;;;;5095748;28;20388;-76
2022/07/19 03:26:06;;;;;;;2.20;1.05;;;14.40;99.90;;;;;;5077664;28;20024;-76
2022/07/19 03:28:33;;;;;;;1.00;1.00;;;14.20;99.90;;;;;;5100162;28;20024;-76
2022/07/19 03:30:59;;;;;;;0.60;0.57;;;14.10;99.90;;;;;;5082344;28;20392;-75
2022/07/19 03:33:24;;;;;;;0.80;0.80;;;14.00;99.90;;;;;;5102230;28;20024;-74
2022/07/19 03:35:50;;;;;;;1.17;0.63;;;14.00;99.90;;;;;;5082665;28;20036;-75
2022/07/19 03:38:16;;;;;;;0.98;0.70;;;14.00;99.90;;;;;;5098610;28;20031;-73
2022/07/19 03:40:43;;;;;;;1.75;0.47;;;14.00;99.90;;;;;;5097239;28;20415;-74
2022/07/19 03:43:09;;;;;;;2.42;1.50;;;14.00;99.90;;;;;;5100221;28;20031;-74
2022/07/19 03:45:34;;;;;;;0.60;0.60;;;14.10;99.90;;;;;;5100287;28;20016;-76
2022/07/19 03:48:00;;;;;;;1.27;0.80;;;14.00;99.90;;;;;;5097353;28;20024;-75
2022/07/19 03:50:27;;;;;;;1.00;0.85;;;14.00;99.90;;;;;;5097766;28;20016;-76
2022/07/19 03:52:52;;;;;;;1.40;1.05;;;14.00;99.90;;;;;;5097984;28;20076;-76
2022/07/19 03:55:18;;;;;;;0.68;0.68;;;14.00;99.90;;;;;;5099131;28;20043;-76
2022/07/19 03:57:44;;;;;;;1.00;1.00;;;14.00;99.90;;;;;;5097559;28;20047;-76
2022/07/19 04:00:10;;;;;;;0.93;0.75;;;14.00;99.90;;;;;;5096548;28;20063;-76
2022/07/19 04:02:35;;;;;;;2.30;1.45;;;14.00;99.90;;;;;;5078460;28;20492;-73
2022/07/19 04:05:01;;;;;;;0.50;0.50;;;14.10;99.90;;;;;;5098366;28;20020;-74
2022/07/19 04:07:27;;;;;;;0.80;0.80;;;14.10;99.90;;;;;;5097451;28;20550;-73
2022/07/19 04:09:52;;;;;;;0.80;0.80;;;14.10;99.90;;;;;;5098918;28;20054;-75
2022/07/19 04:12:18;;;;;;;1.30;1.10;;;14.10;99.90;;;;;;5097054;28;20024;-76
2022/07/19 04:14:44;;;;;;;0.70;0.70;;;14.10;99.90;;;;;;5100557;28;20032;-76
2022/07/19 04:17:09;;;;;;;0.55;0.55;;;14.10;99.90;;;;;;5100917;28;20031;-77
2022/07/19 04:19:35;;;;;;;2.47;0.60;;;14.10;99.90;;;;;;5097575;28;20028;-77
2022/07/19 04:22:01;;;;;;;0.45;0.45;;;14.10;99.90;;;;;;5095905;28;20036;-77
2022/07/19 04:24:26;;;;;;;2.10;1.02;;;14.10;99.90;;;;;;5096427;28;20095;-75
2022/07/19 04:26:52;;;;;;;2.28;1.55;;;14.20;99.90;;;;;;5095579;28;20024;-76
2022/07/19 04:29:18;;;;;;;0.93;0.65;;;14.30;99.90;;;;;;5094925;28;20028;-75
2022/07/19 04:31:43;;;;;;;1.35;0.70;;;14.40;99.90;;;;;;5076458;28;20046;-73
2022/07/19 04:34:09;;;;;;;2.50;0.98;;;14.50;99.90;;;;;;5094416;28;20024;-75
2022/07/19 04:36:35;;;;;;;1.10;0.68;;;14.50;99.90;;;;;;5076394;28;20020;-73
2022/07/19 04:39:00;;;;;;;0.45;0.45;;;14.60;99.90;;;;;;5094493;28;20027;-74
2022/07/19 04:41:26;;;;;;;1.23;1.00;;;14.70;99.90;;;;;;5094361;28;20100;-76
2022/07/19 04:43:51;;;;;;;1.42;1.33;;;14.80;99.90;;;;;;5094907;28;20135;-72
2022/07/19 04:46:17;;;;;;;0.63;0.63;;;14.90;99.90;;;;;;5094417;28;20012;-74
2022/07/19 04:48:43;;;;;;;1.05;0.95;;;15.10;99.90;;;;;;5094271;28;20500;-74
2022/07/19 04:51:08;;;;;;;0.40;0.40;;;15.10;99.90;;;;;;5094248;28;20384;-74
2022/07/19 04:53:34;;;;;;;1.20;0.60;;;15.30;99.90;;;;;;5093801;28;20032;-74
2022/07/19 04:56:00;;;;;;;0.63;0.63;;;15.40;99.90;;;;;;5094040;28;20381;-73
2022/07/19 04:58:25;;;;;;;0.85;0.55;;;15.50;99.90;;;;;;5075636;28;20727;-74
2022/07/19 05:00:51;;;;;;;0.70;0.70;;;15.70;99.90;;;;;;5094128;28;20388;-75
2022/07/19 05:03:17;;;;;;;0.70;0.60;;;15.80;99.90;;;;;;5094045;28;20458;-75
2022/07/19 05:05:42;;;;;;;0.75;0.70;;;15.80;99.90;;;;;;5093810;28;20430;-73
2022/07/19 05:08:08;;;;;;;0.40;0.40;;;15.90;99.90;;;;;;5093788;28;20020;-74
2022/07/19 05:10:33;;;;;;;0.30;0.30;;;15.90;99.90;;;;;;5093863;28;20028;-75
2022/07/19 05:12:59;;;;;;;0.60;0.60;;;16.00;99.90;;;;;;5093539;28;20057;-74
2022/07/19 05:15:25;;;;;;;0.50;0.50;;;16.00;99.90;;;;;;5093648;28;20054;-75
2022/07/19 05:17:50;;;;;;;1.00;1.00;;;16.10;99.90;;;;;;5094282;28;20444;-73
2022/07/19 05:20:16;;;;;;;0.85;0.85;;;16.20;99.90;;;;;;5093662;28;20020;-76
2022/07/19 05:22:43;;;;;;;1.75;0.57;;;16.30;99.90;;;;;;5093477;28;20458;-74
2022/07/19 05:25:09;;;;;;;0.60;0.60;;;16.40;99.90;;;;;;5075428;28;20051;-73
2022/07/19 05:27:36;;;;;;;1.38;1.20;;;16.50;99.90;;;;;;5093586;28;20024;-74
2022/07/19 05:30:03;;;;;;;1.65;1.55;;;16.70;99.90;;;;;;5075683;28;20026;-77
2022/07/19 05:32:29;;;;;;;1.38;0.88;;;16.80;99.90;;;;;;5093512;28;20054;-73
2022/07/19 05:34:55;;;;;;;1.33;0.82;;;16.90;99.90;;;;;;5093342;28;20028;-74
2022/07/19 05:37:20;;;;;;;1.42;0.70;;;17.10;99.90;;;;;;5093448;28;20384;-75
2022/07/19 05:39:46;;;;;;;0.40;0.40;;;17.20;99.90;;;;;;5075298;28;20020;-75
2022/07/19 05:42:12;;;;;;;0.40;0.40;;;17.30;99.90;;;;;;5094181;28;20032;-73
2022/07/19 05:44:37;;;;;;;1.27;1.25;;;17.40;99.90;;;;;;5101725;28;20016;-76
2022/07/19 05:47:03;;;;;;;1.73;0.98;;;17.50;99.90;;;;;;5103751;28;20027;-74
2022/07/19 05:49:29;;;;;;;0.88;0.85;;;17.70;99.90;;;;;;5103346;28;20016;-74
2022/07/19 05:51:54;;;;;;;0.57;0.57;;;17.80;99.90;;;;;;5084963;28;20028;-74
2022/07/19 05:54:20;;;;;;;0.63;0.63;;;17.90;99.90;;;;;;5103405;28;20044;-73
2022/07/19 05:56:46;;;;;;;0.68;0.68;;;18.10;99.90;;;;;;5103617;28;20020;-73
2022/07/19 05:59:11;;;;;;;1.00;0.80;;;18.30;99.90;;;;;;5102817;28;20216;-73
2022/07/19 06:01:37;;;;;;;0.63;0.63;;;18.40;99.90;;;;;;5093595;28;20024;-73
2022/07/19 06:04:03;;;;;;;0.70;0.70;;;18.60;99.90;;;;;;5092888;28;20476;-73
2022/07/19 06:06:31;;;;;;;0.85;0.65;;;18.80;99.90;;;;;;5092996;28;20020;-73
2022/07/19 06:08:57;;;;;;;0.73;0.73;;;19.00;99.90;;;;;;5092919;28;20016;-73
2022/07/19 06:11:24;;;;;;;0.52;0.52;;;19.20;99.90;;;;;;5092988;28;20094;-73
2022/07/19 06:13:50;;;;;;;0.82;0.82;;;21.30;99.90;;;;;;5074900;28;20035;-74
2022/07/19 06:16:16;;;;;;;0.60;0.60;;;19.70;99.90;;;;;;5074926;28;20050;-72
2022/07/19 06:18:41;;;;;;;1.25;0.75;;;21.00;99.90;;;;;;5093013;28;20073;-73
2022/07/19 06:21:10;;;;;;;4.28;1.98;;;22.50;99.90;;;;;;5092809;28;20039;-74
2022/07/19 06:23:38;;;;;;;1.63;0.95;;;23.10;99.90;;;;;;5092786;28;20125;-73
2022/07/19 06:26:05;;;;;;;1.02;0.85;;;23.00;98.20;;;;;;5092560;28;20383;-74
2022/07/19 06:28:31;;;;;;;0.90;0.73;;;22.70;99.40;;;;;;5074793;28;20020;-73
2022/07/19 06:30:57;;;;;;;0.85;0.63;;;22.40;99.80;;;;;;5093043;28;20380;-74
2022/07/19 06:33:23;;;;;;;6.13;1.30;;;22.20;99.90;;;;;;5092948;28;20024;-75
2022/07/19 06:35:49;;;;;;;0.50;0.50;;;22.00;99.90;;;;;;5092920;28;20503;-75
2022/07/19 06:38:15;;;;;;;1.27;1.25;;;21.80;99.90;;;;;;5092688;28;20024;-76
2022/07/19 06:40:41;;;;;;;0.70;0.55;;;21.70;99.90;;;;;;5092778;28;20051;-76
2022/07/19 06:43:07;;;;;;;1.23;0.65;;;21.60;99.90;;;;;;5092645;28;20444;-76
2022/07/19 06:45:32;;;;;;;0.40;0.40;;;21.60;99.90;;;;;;5092771;28;20488;-74
2022/07/19 06:47:58;;;;;;;0.73;0.73;;;21.70;99.90;;;;;;5074832;28;20115;-75
2022/07/19 06:50:24;;;;;;;0.50;0.50;;;22.10;99.90;;;;;;5092872;28;20051;-76
2022/07/19 06:52:50;;;;;;;2.50;1.02;;;22.80;99.70;;;;;;5092721;28;20097;-76
2022/07/19 06:55:15;;;;;;;1.00;0.90;;;23.20;98.00;;;;;;5092798;28;20016;-75
2022/07/19 06:57:42;;;;;;;0.73;0.73;;;24.20;92.60;;;;;;5092661;28;20035;-74
2022/07/19 07:00:09;;;;;;;2.33;1.38;;;25.70;81.20;;;;;;5074299;28;20366;-75
2022/07/19 07:02:39;;;;;;;0.55;0.55;;;27.20;70.70;;;;;;5093813;28;20547;-75
2022/07/19 07:05:06;;;;;;;2.08;1.30;;;28.60;64.70;;;;;;5095939;28;20028;-76
2022/07/19 07:07:32;;;;;;;0.50;0.50;;;29.60;60.00;;;;;;5096341;28;20020;-76
2022/07/19 07:09:58;;;;;;;1.10;0.70;;;30.70;58.10;;;;;;5078062;28;20078;-75
2022/07/19 07:12:23;;;;;;;1.27;0.73;;;31.80;54.10;;;;;;5096225;28;20380;-75
2022/07/19 07:14:49;;;;;;;0.52;0.52;;;32.30;52.80;;;;;;5077586;28;20480;-75
2022/07/19 07:17:15;;;;;;;0.82;0.82;;;31.80;52.30;;;;;;5095976;28;20059;-75
2022/07/19 07:19:40;;;;;;;1.45;1.30;;;31.60;53.60;;;;;;5077669;28;20024;-75
2022/07/19 07:22:06;;;;;;;0.73;0.73;;;31.10;53.60;;;;;;5095618;28;20051;-75
2022/07/19 07:24:32;;;;;;;0.30;0.30;;;31.10;53.40;;;;;;5077716;28;20058;-78
2022/07/19 07:26:57;;;;;;;0.70;0.70;;;31.40;53.60;;;;;;5098551;28;20336;-76
2022/07/19 07:29:23;;;;;;;0.75;0.75;;;31.80;52.90;;;;;;5098086;28;20043;-77
2022/07/19 07:31:50;;;;;;;0.40;0.40;;;31.50;52.70;;;;;;5097865;28;20020;-76
2022/07/19 07:34:16;;;;;;;0.45;0.45;;;31.80;53.90;;;;;;5098993;28;20066;-73
2022/07/19 07:36:43;;;;;;;0.60;0.60;;;31.80;54.10;;;;;;5103729;28;20068;-76
2022/07/19 07:39:10;;;;;;;2.65;1.10;;;31.50;53.00;;;;;;5098506;28;20030;-82
2022/07/19 07:41:36;;;;;;;1.02;0.55;;;31.20;54.00;;;;;;5081899;28;20024;-77
2022/07/19 07:44:02;;;;;;;3.30;1.15;;;31.40;53.60;;;;;;5106128;28;20016;-81
2022/07/19 07:46:30;;;;;;;1.02;1.02;;;31.00;53.00;;;;;;5087776;28;20061;-77
2022/07/19 07:48:56;;;;;;;2.28;0.73;;;30.70;53.70;;;;;;5105800;28;20031;-77
2022/07/19 07:51:22;;;;;;;4.60;1.35;;;31.10;52.90;;;;;;5104157;28;20087;-78
2022/07/19 07:53:48;;;;;;;1.00;0.88;;;31.30;53.70;;;;;;5104537;28;20236;-79
2022/07/19 07:56:15;;;;;;;1.38;0.50;;;31.60;53.10;;;;;;5086473;28;20051;-79
2022/07/19 07:58:40;;;;;;;1.35;1.25;;;31.60;52.10;;;;;;5104962;28;20206;-80
2022/07/19 08:01:06;;;;;;;1.75;0.52;;;31.90;51.70;;;;;;5105280;28;20083;-78
2022/07/19 08:03:34;;;;;;;0.70;0.43;;;32.20;51.10;;;;;;5100007;28;20032;-78
2022/07/19 08:06:00;;;;;;;1.45;0.47;;;32.20;51.00;;;;;;5095609;28;20435;-78
2022/07/19 08:08:26;;;;;;;0.55;0.55;;;32.70;52.00;;;;;;5076936;28;20032;-74
2022/07/19 08:10:53;;;;;;;0.95;0.95;;;33.40;48.60;;;;;;5094887;28;20028;-75
2022/07/19 08:13:20;;;;;;;0.35;0.35;;;34.10;50.00;;;;;;5094830;28;20024;-78
2022/07/19 08:15:45;;;;;;;2.30;1.10;;;34.50;47.60;;;;;;5094463;28;20024;-75
2022/07/19 08:18:11;;;;;;;1.80;1.35;;;34.40;47.40;;;;;;5094804;28;20028;-75
2022/07/19 08:20:37;;;;;;;0.25;0.25;;;34.70;48.80;;;;;;5076719;28;20026;-78
2022/07/19 08:23:02;;;;;;;1.58;0.85;;;35.00;47.60;;;;;;5076476;28;20070;-76
2022/07/19 08:25:28;;;;;;;0.47;0.47;;;35.30;47.80;;;;;;5094834;28;20100;-79
2022/07/19 08:27:54;;;;;;;10.88;1.05;;;35.00;47.80;;;;;;5094558;28;20020;-78
2022/07/19 08:30:20;;;;;;;0.60;0.60;;;33.70;47.00;;;;;;5094412;28;20047;-76
2022/07/19 08:32:45;;;;;;;1.20;0.60;;;33.80;48.10;;;;;;5094430;28;20039;-78
2022/07/19 08:35:11;;;;;;;1.02;0.70;;;33.60;48.20;;;;;;5094582;28;20069;-76
2022/07/19 08:37:37;;;;;;;0.65;0.65;;;33.10;48.50;;;;;;5094335;28;20047;-77
2022/07/19 08:40:05;;;;;;;0.43;0.43;;;33.00;47.30;;;;;;5094488;28;20024;-78
2022/07/19 08:42:32;;;;;;;1.13;0.82;;;32.50;49.70;;;;;;5094440;28;20157;-75
2022/07/19 08:45:01;;;;;;;0.75;0.50;;;31.90;48.80;;;;;;5094334;28;20032;-75
2022/07/19 08:47:28;;;;;;;9.05;1.05;;;32.00;50.30;;;;;;5094217;28;20031;-77
2022/07/19 08:49:54;;;;;;;0.95;0.95;;;32.30;49.80;;;;;;5093919;28;20012;-77
2022/07/19 08:52:21;;;;;;;0.43;0.40;;;32.80;50.70;;;;;;5093964;28;20110;-78
2022/07/19 08:54:47;;;;;;;1.38;0.70;;;33.40;48.00;;;;;;5094059;28;20047;-78
2022/07/19 08:59:57;;;;;;;0.25;0.25;;;33.90;46.50;;;;;;5094672;28;20387;-75
2022/07/19 09:02:23;;;;;;;0.60;0.60;;;33.80;46.40;;;;;;5093867;28;20032;-76
2022/07/19 09:05:07;;;;;;;0.90;0.85;;;34.00;46.50;;;;;;5075774;28;20384;-76
2022/07/19 09:07:35;;;;;;;0.47;0.47;;;34.50;46.00;;;;;;5075572;28;20091;-75
2022/07/19 09:10:21;;;;;;;0.60;0.30;;;34.10;46.60;;;;;;5093646;28;20059;-75
2022/07/19 09:13:01;;;;;;;1.13;0.60;;;33.30;47.90;;;;;;5093716;28;20036;-75
2022/07/19 09:15:50;;;;;;;0.50;0.50;;;33.70;46.70;;;;;;5075697;28;20024;-76
2022/07/19 09:18:21;;;;;;;0.40;0.40;;;33.80;46.10;;;;;;5093628;28;20024;-75
2022/07/19 09:20:58;;;;;;;0.50;0.50;;;33.70;46.20;;;;;;5075461;28;20030;-75
2022/07/19 09:23:24;;;;;;;4.10;0.90;;;34.30;45.10;;;;;;5093473;28;20039;-75
2022/07/19 09:25:55;;;;;;;0.77;0.77;;;34.40;44.60;;;;;;5093004;28;20020;-75
2022/07/19 09:28:23;;;;;;;0.47;0.47;;;34.60;44.50;;;;;;5075268;28;20393;-75
2022/07/19 09:30:54;;;;;;;0.60;0.52;;;35.00;46.80;;;;;;5075340;28;20024;-75
2022/07/19 09:33:21;;;;;;;0.70;0.65;;;34.30;43.70;;;;;;5093567;28;20050;-75
2022/07/19 09:35:49;;;;;;;0.80;0.80;;;34.30;44.10;;;;;;5075305;28;20048;-75
2022/07/19 09:38:19;;;;;;;0.10;0.10;;;34.70;46.00;;;;;;5093483;28;20020;-75
2022/07/19 09:40:44;;;;;;;1.38;0.73;;;34.70;43.30;;;;;;5075415;28;20028;-75
2022/07/19 09:43:10;;;;;;;0.60;0.60;;;34.90;43.80;;;;;;5075017;28;20093;-76
2022/07/19 09:45:36;;;;;;;0.93;0.90;;;35.30;42.70;;;;;;5074868;28;20430;-76
2022/07/19 09:48:03;;;;;;;0.30;0.30;;;35.10;43.50;;;;;;5075011;28;20480;-76
2022/07/19 09:50:30;;;;;;;0.88;0.82;;;34.60;43.40;;;;;;5075349;28;20389;-76
2022/07/19 09:53:00;;;;;;;2.85;0.85;;;34.40;44.00;;;;;;5074778;28;20055;-76
2022/07/19 09:55:27;;;;;;;0.80;0.80;;;34.50;45.20;;;;;;5093760;28;20020;-76
2022/07/19 09:57:56;;;;;;;0.77;0.30;;;34.90;44.40;;;;;;5074801;28;20488;-74
2022/07/19 10:00:22;;;;;;;;;;;35.30;42.30;;;;;;5093467;28;20469;-75
2022/07/19 10:02:51;;;;;;;0.38;0.38;;;35.20;43.80;;;;;;5093111;28;20410;-76
2022/07/19 10:05:18;;;;;;;1.00;0.93;;;35.70;44.20;;;;;;5092960;28;20027;-76
2022/07/19 10:07:44;;;;;;;0.65;0.65;;;36.10;41.90;;;;;;5093040;28;20024;-77
2022/07/19 10:10:15;;;;;;;0.68;0.68;;;35.60;41.80;;;;;;5092994;28;20111;-75
2022/07/19 10:12:43;;;;;;;0.82;0.50;;;35.10;43.70;;;;;;5092955;28;20035;-75
2022/07/19 10:15:11;;;;;;;1.13;0.75;;;34.70;42.80;;;;;;5074724;28;20468;-75
2022/07/19 10:17:38;;;;;;;2.85;1.35;;;34.80;43.50;;;;;;5093034;28;20020;-76
2022/07/19 10:20:06;;;;;;;7.15;2.13;;;34.40;44.00;;;;;;5093049;28;20028;-77
2022/07/19 10:22:33;;;;;;;0.57;0.57;;;34.60;43.90;;;;;;5092778;28;20115;-77
2022/07/19 10:25:10;;;;;;;0.60;0.60;;;34.30;43.80;;;;;;5092802;28;20036;-75
2022/07/19 10:27:43;;;;;;;0.60;0.60;;;34.10;43.90;;;;;;5092895;28;20028;-75
2022/07/19 10:30:11;;;;;;;1.38;1.00;;;33.60;43.60;;;;;;5074584;28;20020;-79
2022/07/19 10:32:39;;;;;;;0.65;0.65;;;34.20;44.30;;;;;;5093107;28;20024;-76
2022/07/19 10:35:30;;;;;;;0.30;0.30;;;34.40;43.30;;;;;;5092785;28;20020;-75
2022/07/19 10:38:09;;;;;;;0.40;0.40;;;34.70;44.70;;;;;;5076689;28;20059;-75
2022/07/19 10:40:37;;;;;;;0.40;0.40;;;35.30;42.20;;;;;;5078793;28;20039;-75
2022/07/19 10:43:08;;;;;;;0.80;0.77;;;35.20;42.90;;;;;;5096514;28;20088;-73
2022/07/19 10:45:34;;;;;;;1.40;1.30;;;35.00;43.80;;;;;;5078466;28;20056;-72
2022/07/19 10:48:03;;;;;;;0.70;0.70;;;35.00;42.00;;;;;;5096702;28;20031;-75
2022/07/19 10:50:42;;;;;;;;;;;35.10;42.20;;;;;;5099206;28;20149;-73
2022/07/19 10:53:08;;;;;;;0.75;0.75;;;34.90;41.40;;;;;;5078159;28;19923;-73
2022/07/19 10:55:34;;;;;;;0.68;0.68;;;34.80;42.70;;;;;;5096605;28;20020;-73
2022/07/19 10:58:06;;;;;;;0.73;0.73;;;34.80;42.30;;;;;;5096241;28;20024;-74
2022/07/19 11:00:47;;;;;;;0.43;0.43;;;35.00;43.10;;;;;;5096180;28;20095;-73
2022/07/19 11:03:25;;;;;;;0.88;0.88;;;35.20;42.60;;;;;;5078105;28;20396;-74
2022/07/19 11:05:59;;;;;;;0.67;0.67;;;35.50;41.90;;;;;;5096371;28;20024;-74
2022/07/19 11:08:33;;;;;;;2.42;1.45;;;35.20;42.80;;;;;;5096225;28;20250;-73
2022/07/19 11:11:11;;;;;;;1.45;1.20;;;35.60;42.00;;;;;;5096421;28;20047;-74
2022/07/19 11:13:38;;;;;;;0.53;0.40;;;36.00;40.80;;;;;;5096237;28;20109;-74
2022/07/19 11:16:05;;;;;;;0.60;0.60;;;37.30;41.00;;;;;;5096558;28;20024;-74
2022/07/19 11:18:32;;;;;;;0.80;0.80;;;37.70;40.90;;;;;;5095972;28;20491;-73
2022/07/19 11:21:03;;;;;;;1.70;0.80;;;37.20;39.40;;;;;;5095816;28;20039;-73
2022/07/19 11:23:34;;;;;;;8.25;1.85;;;37.10;40.70;;;;;;5095759;28;20035;-76
2022/07/19 11:26:05;;;;;;;0.40;0.40;;;37.70;40.20;;;;;;5095784;28;20366;-73
2022/07/19 11:28:31;;;;;;;0.20;0.20;;;37.70;39.50;;;;;;5095893;28;20024;-75
2022/07/19 11:30:57;;;;;;;0.40;0.40;;;36.80;39.10;;;;;;5097717;28;20024;-74
2022/07/19 11:33:23;;;;;;;0.50;0.50;;;36.90;40.60;;;;;;5078012;28;20032;-73
2022/07/19 11:35:57;;;;;;;2.90;0.75;;;37.20;40.30;;;;;;5095678;28;20020;-74
2022/07/19 11:38:23;;;;;;;0.40;0.40;;;37.80;40.60;;;;;;5095547;28;20020;-74
2022/07/19 11:40:49;;;;;;;0.65;0.57;;;37.90;38.80;;;;;;5099427;28;20024;-71
2022/07/19 11:43:15;;;;;;;0.60;0.60;;;38.00;39.20;;;;;;5095732;28;20392;-74
2022/07/19 11:45:46;;;;;;;0.50;0.50;;;37.90;39.20;;;;;;5099022;28;20137;-74
2022/07/19 11:48:11;;;;;;;0.40;0.40;;;38.20;38.80;;;;;;5097744;28;20031;-73
2022/07/19 11:50:40;;;;;;;1.13;0.73;;;38.50;39.60;;;;;;5095454;28;20020;-72
2022/07/19 11:53:06;;;;;;;0.70;0.57;;;39.00;37.70;;;;;;5094968;28;20515;-73
2022/07/19 11:55:38;;;;;;;1.77;1.08;;;39.70;38.90;;;;;;5095234;28;20020;-73
2022/07/19 11:58:10;;;;;;;0.40;0.40;;;39.40;39.10;;;;;;5095150;28;20353;-74
2022/07/19 12:00:43;;;;;;;0.32;0.32;;;39.50;37.20;;;;;;5095106;28;20024;-75
2022/07/19 12:03:17;;;;;;;0.60;0.43;;;40.00;38.60;;;;;;5076823;28;20454;-74
2022/07/19 12:05:58;;;;;;;0.70;0.70;;;40.60;37.20;;;;;;5077137;28;20460;-76
2022/07/19 12:08:42;;;;;;;0.90;0.20;;;40.50;37.90;;;;;;5094969;28;20035;-76
2022/07/19 12:11:23;;;;;;;0.57;0.55;;;39.60;38.50;;;;;;5095233;28;20016;-73
2022/07/19 12:13:49;;;;;;;1.25;0.65;;;40.00;36.90;;;;;;5094830;28;20016;-77
2022/07/19 12:16:16;;;;;;;4.93;0.60;;;40.10;37.60;;;;;;5094754;28;20106;-77
2022/07/19 12:18:48;;;;;;;0.60;0.60;;;39.70;36.90;;;;;;5077470;28;20534;-75
2022/07/19 12:21:40;;;;;;;0.30;0.30;;;39.80;36.10;;;;;;5096767;28;20532;-74
2022/07/19 12:24:09;;;;;;;0.75;0.75;;;40.00;36.20;;;;;;5094799;28;20117;-74
2022/07/19 12:26:35;;;;;;;0.30;0.30;;;40.20;37.10;;;;;;5095869;28;20069;-75
2022/07/19 12:29:01;;;;;;;2.25;1.20;;;39.90;36.40;;;;;;5097983;28;20032;-75
2022/07/19 12:31:27;;;;;;;1.23;1.13;;;39.70;36.60;;;;;;5094533;28;20017;-73
2022/07/19 12:34:01;;;;;;;0.50;0.50;;;39.40;37.90;;;;;;5094354;28;20043;-74
2022/07/19 12:36:35;;;;;;;0.65;0.52;;;39.10;37.60;;;;;;5076995;28;20089;-75
2022/07/19 12:39:01;;;;;;;0.52;0.52;;;38.80;37.20;;;;;;5076196;28;20027;-77
2022/07/19 12:41:27;;;;;;;0.73;0.73;;;38.90;37.40;;;;;;5099211;28;20102;-72
2022/07/19 12:43:52;;;;;;;1.45;1.15;;;39.30;37.10;;;;;;5094341;28;20040;-72
2022/07/19 12:46:18;;;;;;;1.02;0.98;;;39.70;36.10;;;;;;5076159;28;20027;-80
2022/07/19 12:48:44;;;;;;;1.17;0.93;;;39.90;36.20;;;;;;5076029;28;20039;-75
2022/07/19 12:51:09;;;;;;;0.88;0.88;;;39.60;35.60;;;;;;5075978;28;20140;-74